Weather History for Andersen AFB, GU

Change the Weather History Date:

Friday, November 23, 2012

  Actual Average Record
Temperature  
Mean Temperature 80 °F -  
Max Temperature 86 °F 83 °F 86 °F (2000)
Min Temperature 75 °F 75 °F 73 °F (1996)
Cooling Degree Days 16    
Growing Degree Days 30 (Base 50)    
Moisture  
Dew Point 75 °F    
Average Humidity 83    
Maximum Humidity 94    
Minimum Humidity 70    
Precipitation  
Precipitation 0.01 in - - ()
Sea Level Pressure  
Sea Level Pressure 29.83 in    
Wind  
Wind Speed 13 mph (NE)    
Max Wind Speed 23 mph    
Max Gust Speed 26 mph    
Visibility 10 miles    
Events Rain    
Averages and records for this station are not official NWS values.
T = Trace of Precipitation, MM = Missing Value Source: NWS Daily Summary

Daily Weather History Graph

Daily Weather History Graph

Search for Another Location

Airport:

Trip Planner

Search our weather history database for the weather conditions in past years. The results will help you decide how hot, cold, wet, or windy it might be!

Date:

Astronomy

Nov. 23, 2012 Rise Set
Actual Time 6:23 AM ChST 5:49 PM ChST
Civil Twilight 6:00 AM ChST 6:12 PM ChST
Nautical Twilight 5:34 AM ChST 6:38 PM ChST
Astronomical Twilight 5:08 AM ChST 7:04 PM ChST
Moon 2:05 PM ChST (11/23) 1:49 AM ChST (11/23)
Length of Visible Light 12h 11m
Length of Day
11h 26m
Waxing Gibbous, 74% of the Moon is Illuminated
Nov 23
Waxing Gibbous
Nov 29
Full
Dec 7
Last Quarter
Dec 13
New
Dec 20
First Quarter

Hourly Weather History & Observations

Time (ChST) Temp. Heat Index Dew Point Humidity Pressure Visibility Wind Dir Wind Speed Gust Speed Precip Events Conditions
12:54 AM 78.8 °F - 77.0 °F 94% 29.85 in 10.0 mi NE 12.7 mph - N/A   Light Drizzle
12:55 AM 79.3 °F - 76.3 °F 90% 29.85 in 10.0 mi NE 12.7 mph - 0.00 in   Light Drizzle
1:01 AM 78.8 °F - 75.2 °F 89% 29.85 in 10.0 mi NE 11.5 mph - N/A   Light Drizzle
1:08 AM 78.8 °F - 75.2 °F 89% 29.85 in 10.0 mi NE 13.8 mph - N/A   Mostly Cloudy
1:11 AM 78.8 °F - 75.2 °F 89% 29.85 in 10.0 mi NE 12.7 mph - N/A   Mostly Cloudy
1:20 AM 78.8 °F - 75.2 °F 89% 29.85 in 10.0 mi NE 11.5 mph - N/A   Mostly Cloudy
1:21 AM 78.8 °F - 75.2 °F 89% 29.85 in 10.0 mi NE 12.7 mph - N/A   Mostly Cloudy
1:30 AM 78.8 °F - 75.2 °F 89% 29.85 in 10.0 mi NE 13.8 mph - N/A   Mostly Cloudy
1:31 AM 78.8 °F - 75.2 °F 89% 29.85 in 10.0 mi NE 12.7 mph - N/A   Scattered Clouds
1:35 AM 78.8 °F - 75.2 °F 89% 29.85 in 10.0 mi NE 12.7 mph - N/A   Mostly Cloudy
1:37 AM 78.8 °F - 75.2 °F 89% 29.85 in 10.0 mi NE 12.7 mph - N/A   Scattered Clouds
1:55 AM 79.2 °F - 75.0 °F 87% 29.85 in 10.0 mi NE 12.7 mph - 0.00 in   Scattered Clouds
2:18 AM 78.8 °F - 75.2 °F 89% 29.85 in 10.0 mi NE 10.4 mph - N/A   Mostly Cloudy
2:20 AM 78.8 °F - 75.2 °F 89% 29.85 in 10.0 mi NE 10.4 mph - N/A   Mostly Cloudy
2:30 AM 78.8 °F - 75.2 °F 89% 29.84 in 10.0 mi NE 12.7 mph - N/A   Mostly Cloudy
2:40 AM 78.8 °F - 75.2 °F 89% 29.84 in 10.0 mi NE 11.5 mph - N/A   Scattered Clouds
2:55 AM 79.0 °F - 74.7 °F 87% 29.84 in 10.0 mi NE 10.4 mph - N/A   Partly Cloudy
3:04 AM 78.8 °F - 75.2 °F 89% 29.83 in 10.0 mi NE 13.8 mph - N/A Rain Light Rain
3:17 AM 78.8 °F - 75.2 °F 89% 29.83 in 10.0 mi NE 11.5 mph - N/A   Scattered Clouds
3:55 AM 79.0 °F - 75.6 °F 89% 29.82 in 10.0 mi NE 11.5 mph - 0.00 in   Scattered Clouds
4:17 AM 78.8 °F - 75.2 °F 89% 29.83 in 10.0 mi East 20.7 mph 26.5 mph N/A   Mostly Cloudy
4:19 AM 78.8 °F - 73.4 °F 83% 29.83 in 10.0 mi East 18.4 mph 26.5 mph N/A   Mostly Cloudy
4:21 AM 77.0 °F - 73.4 °F 89% 29.83 in 10.0 mi East 19.6 mph 26.5 mph N/A   Mostly Cloudy
4:23 AM 77.0 °F - 73.4 °F 89% 29.83 in 10.0 mi East 15.0 mph 26.5 mph N/A   Light Drizzle
4:29 AM 77.0 °F - 73.4 °F 89% 29.83 in 10.0 mi East 10.4 mph - N/A   Light Drizzle
4:32 AM 75.2 °F - 73.4 °F 94% 29.83 in 10.0 mi East 9.2 mph - N/A   Mostly Cloudy
4:55 AM 77.0 °F - 70.0 °F 79% 29.83 in 10.0 mi ENE 11.5 mph - 0.00 in   Scattered Clouds
5:27 AM 77.0 °F - 71.6 °F 83% 29.84 in 10.0 mi NE 12.7 mph - N/A Rain Light Rain
5:37 AM 77.0 °F - 71.6 °F 83% 29.84 in 10.0 mi ENE 10.4 mph - N/A   Scattered Clouds
5:55 AM 77.2 °F - 73.6 °F 89% 29.85 in 10.0 mi ENE 8.1 mph - 0.00 in   Clear
6:55 AM 78.4 °F - 75.7 °F 91% 29.86 in 10.0 mi ENE 6.9 mph - N/A   Scattered Clouds
7:08 AM 80.6 °F 86.2 °F 75.2 °F 84% 29.86 in 10.0 mi ENE 10.4 mph - N/A   Mostly Cloudy
7:15 AM 80.6 °F 86.2 °F 75.2 °F 84% 29.86 in 10.0 mi ENE 12.7 mph - N/A   Mostly Cloudy
7:17 AM 80.6 °F 86.2 °F 75.2 °F 84% 29.86 in 10.0 mi NE 13.8 mph - N/A   Mostly Cloudy
7:39 AM 80.6 °F 86.2 °F 75.2 °F 84% 29.87 in 10.0 mi NE 11.5 mph - N/A   Scattered Clouds
7:55 AM 81.9 °F 88.5 °F 75.2 °F 80% 29.87 in 10.0 mi NE 11.5 mph - N/A   Partly Cloudy
8:55 AM 83.3 °F 91.1 °F 75.6 °F 77% 29.88 in 10.0 mi NE 12.7 mph - N/A   Scattered Clouds
9:55 AM 84.2 °F 93.0 °F 75.9 °F 76% 29.87 in 10.0 mi ENE 12.7 mph - N/A   Partly Cloudy
10:17 AM 84.2 °F 92.3 °F 75.2 °F 74% 29.86 in 10.0 mi NE 13.8 mph - N/A   Mostly Cloudy
10:22 AM 84.2 °F 94.1 °F 77.0 °F 79% 29.86 in 10.0 mi ENE 15.0 mph 19.6 mph N/A   Scattered Clouds
10:39 AM 84.2 °F 92.3 °F 75.2 °F 74% 29.85 in 10.0 mi NE 15.0 mph - N/A   Mostly Cloudy
10:43 AM 84.2 °F 94.1 °F 77.0 °F 79% 29.86 in 10.0 mi NE 13.8 mph - N/A   Mostly Cloudy
10:51 AM 84.2 °F 92.3 °F 75.2 °F 74% 29.85 in 10.0 mi NE 13.8 mph - N/A   Mostly Cloudy
10:55 AM 84.6 °F 93.9 °F 76.1 °F 76% 29.85 in 10.0 mi ENE 15.0 mph - N/A   Mostly Cloudy
11:23 AM 84.2 °F 92.3 °F 75.2 °F 74% 29.84 in 10.0 mi ENE 15.0 mph - N/A   Mostly Cloudy
11:38 AM 84.2 °F 92.3 °F 75.2 °F 74% 29.84 in 10.0 mi NE 16.1 mph - N/A   Mostly Cloudy
11:43 AM 84.2 °F 92.3 °F 75.2 °F 74% 29.83 in 10.0 mi NE 15.0 mph - N/A   Mostly Cloudy
11:49 AM 84.2 °F 92.3 °F 75.2 °F 74% 29.83 in 10.0 mi NE 17.3 mph - N/A   Mostly Cloudy
11:55 AM 83.8 °F 91.8 °F 75.2 °F 75% 29.83 in 10.0 mi NE 16.1 mph - N/A   Mostly Cloudy
12:36 PM 86.0 °F 95.1 °F 75.2 °F 70% 29.81 in 10.0 mi ENE 15.0 mph - N/A   Scattered Clouds
12:55 PM 85.5 °F 95.0 °F 75.9 °F 73% 29.80 in 10.0 mi ENE 15.0 mph - N/A   Partly Cloudy
1:09 PM 86.0 °F 95.1 °F 75.2 °F 70% 29.79 in 10.0 mi NE 13.8 mph - N/A   Mostly Cloudy
1:11 PM 84.2 °F 92.3 °F 75.2 °F 74% 29.79 in 10.0 mi NE 12.7 mph - N/A   Scattered Clouds
1:12 PM 86.0 °F 95.1 °F 75.2 °F 70% 29.79 in 10.0 mi NE 13.8 mph - N/A   Mostly Cloudy
1:35 PM 84.2 °F 92.3 °F 75.2 °F 74% 29.78 in 10.0 mi NE 13.8 mph - N/A   Scattered Clouds
1:40 PM 84.2 °F 92.3 °F 75.2 °F 74% 29.78 in 10.0 mi NNE 13.8 mph - N/A   Mostly Cloudy
1:51 PM 84.2 °F 92.3 °F 75.2 °F 74% 29.78 in 10.0 mi ENE 11.5 mph - N/A   Mostly Cloudy
1:55 PM 84.4 °F 93.5 °F 76.1 °F 76% 29.78 in 10.0 mi NE 15.0 mph - N/A   Mostly Cloudy
2:02 PM 84.2 °F 92.3 °F 75.2 °F 74% 29.78 in 10.0 mi NE 13.8 mph - N/A   Mostly Cloudy
2:14 PM 84.2 °F 92.3 °F 75.2 °F 74% 29.78 in 10.0 mi NE 16.1 mph - N/A   Scattered Clouds
2:17 PM 84.2 °F 92.3 °F 75.2 °F 74% 29.78 in 10.0 mi ENE 15.0 mph - N/A   Mostly Cloudy
2:27 PM 84.2 °F 92.3 °F 75.2 °F 74% 29.77 in 10.0 mi ENE 12.7 mph - N/A   Scattered Clouds
2:43 PM 84.2 °F 92.3 °F 75.2 °F 74% 29.77 in 10.0 mi NE 13.8 mph - N/A   Mostly Cloudy
2:55 PM 84.2 °F 93.0 °F 75.9 °F 76% 29.77 in 10.0 mi NE 11.5 mph - N/A   Mostly Cloudy
3:36 PM 82.4 °F 89.5 °F 75.2 °F 79% 29.76 in 10.0 mi NE 13.8 mph - N/A   Mostly Cloudy
3:55 PM 82.9 °F 89.9 °F 74.8 °F 76% 29.77 in 10.0 mi ENE 11.5 mph - N/A   Partly Cloudy
4:37 PM 82.4 °F 89.5 °F 75.2 °F 79% 29.78 in 10.0 mi ENE 12.7 mph - N/A   Mostly Cloudy
4:40 PM 82.4 °F 89.5 °F 75.2 °F 79% 29.78 in 10.0 mi ENE 10.4 mph - N/A   Scattered Clouds
4:55 PM 81.9 °F 88.7 °F 75.4 °F 81% 29.79 in 10.0 mi NE 12.7 mph - N/A   Scattered Clouds
5:01 PM 82.4 °F 89.5 °F 75.2 °F 79% 29.79 in 10.0 mi ENE 11.5 mph - N/A   Mostly Cloudy
5:05 PM 80.6 °F 86.2 °F 75.2 °F 84% 29.79 in 10.0 mi ENE 11.5 mph - N/A   Scattered Clouds
5:06 PM 80.6 °F 86.2 °F 75.2 °F 84% 29.79 in 10.0 mi ENE 10.4 mph - N/A   Mostly Cloudy
5:10 PM 82.4 °F 89.5 °F 75.2 °F 79% 29.79 in 10.0 mi NE 11.5 mph - N/A   Scattered Clouds
5:23 PM 82.4 °F 89.5 °F 75.2 °F 79% 29.79 in 8.0 mi NE 12.7 mph - N/A Rain Rain
5:32 PM 80.6 °F 87.1 °F 77.0 °F 89% 29.80 in 8.0 mi ENE 12.7 mph - N/A   Light Drizzle
5:35 PM 80.6 °F 87.1 °F 77.0 °F 89% 29.80 in 10.0 mi ENE 13.8 mph - N/A   Mostly Cloudy
5:55 PM 80.4 °F 86.1 °F 75.9 °F 86% 29.80 in 10.0 mi NE 11.5 mph - 0.00 in   Mostly Cloudy
6:30 PM 80.6 °F 86.2 °F 75.2 °F 84% 29.81 in 10.0 mi NE 11.5 mph - N/A   Mostly Cloudy
6:46 PM 80.6 °F 86.2 °F 75.2 °F 84% 29.82 in 10.0 mi NE 12.7 mph - N/A   Mostly Cloudy
6:55 PM 80.8 °F 86.7 °F 75.6 °F 84% 29.82 in 10.0 mi NE 12.7 mph - N/A   Mostly Cloudy
7:02 PM 80.6 °F 86.2 °F 75.2 °F 84% 29.82 in 10.0 mi NE 13.8 mph - N/A   Mostly Cloudy
7:40 PM 80.6 °F 86.2 °F 75.2 °F 84% 29.83 in 10.0 mi NE 11.5 mph - N/A   Mostly Cloudy
7:49 PM 80.6 °F 86.2 °F 75.2 °F 84% 29.83 in 10.0 mi ENE 15.0 mph - N/A   Scattered Clouds
7:55 PM 80.4 °F 85.6 °F 74.8 °F 83% 29.84 in 10.0 mi NE 12.7 mph - N/A   Scattered Clouds
8:00 PM 80.6 °F 86.2 °F 75.2 °F 84% 29.84 in 10.0 mi NE 13.8 mph - N/A   Mostly Cloudy
8:06 PM 80.6 °F 86.2 °F 75.2 °F 84% 29.84 in 10.0 mi NE 12.7 mph - N/A   Scattered Clouds
8:07 PM 80.6 °F 86.2 °F 75.2 °F 84% 29.84 in 10.0 mi ENE 12.7 mph - N/A   Mostly Cloudy
8:11 PM 80.6 °F 86.2 °F 75.2 °F 84% 29.84 in 10.0 mi NE 12.7 mph - N/A   Scattered Clouds
8:48 PM 80.6 °F 86.2 °F 75.2 °F 84% 29.85 in 10.0 mi NE 10.4 mph - N/A   Mostly Cloudy
8:55 PM 80.4 °F 85.8 °F 75.2 °F 84% 29.85 in 10.0 mi NE 12.7 mph - N/A   Mostly Cloudy
8:57 PM 80.6 °F 86.2 °F 75.2 °F 84% 29.85 in 10.0 mi NE 12.7 mph - N/A   Scattered Clouds
9:03 PM 80.6 °F 86.2 °F 75.2 °F 84% 29.85 in 10.0 mi ENE 12.7 mph - N/A   Mostly Cloudy
9:09 PM 80.6 °F 87.1 °F 77.0 °F 89% 29.85 in 10.0 mi NE 10.4 mph - N/A   Mostly Cloudy
9:17 PM 80.6 °F 86.2 °F 75.2 °F 84% 29.85 in 10.0 mi ENE 13.8 mph - N/A   Mostly Cloudy
9:23 PM 80.6 °F 86.2 °F 75.2 °F 84% 29.86 in 10.0 mi ENE 12.7 mph - N/A   Mostly Cloudy
9:34 PM 80.6 °F 86.2 °F 75.2 °F 84% 29.86 in 10.0 mi NE 13.8 mph - N/A   Mostly Cloudy
9:35 PM 80.6 °F 86.2 °F 75.2 °F 84% 29.86 in 10.0 mi NE 13.8 mph - N/A   Mostly Cloudy
9:36 PM 80.6 °F 86.2 °F 75.2 °F 84% 29.86 in 10.0 mi NE 12.7 mph - N/A   Mostly Cloudy
9:41 PM 80.6 °F 86.2 °F 75.2 °F 84% 29.86 in 10.0 mi NE 13.8 mph - N/A   Mostly Cloudy
9:50 PM 80.6 °F 86.2 °F 75.2 °F 84% 29.86 in 10.0 mi NE 11.5 mph - N/A   Scattered Clouds
9:55 PM 80.2 °F 85.2 °F 74.7 °F 83% 29.86 in 10.0 mi NE 12.7 mph - N/A   Scattered Clouds
10:52 PM 80.6 °F 86.2 °F 75.2 °F 84% 29.85 in 10.0 mi NE 8.1 mph - N/A   Mostly Cloudy
10:54 PM 80.6 °F 86.2 °F 75.2 °F 84% 29.85 in 10.0 mi NE 10.4 mph - N/A   Mostly Cloudy
10:55 PM 80.4 °F 86.0 °F 75.4 °F 85% 29.85 in 10.0 mi NE 10.4 mph - N/A   Mostly Cloudy
11:01 PM 80.6 °F 86.2 °F 75.2 °F 84% 29.85 in 10.0 mi NE 11.5 mph - N/A   Mostly Cloudy
11:34 PM 80.6 °F 86.2 °F 75.2 °F 84% 29.85 in 10.0 mi NE 12.7 mph - N/A   Scattered Clouds
11:40 PM 80.6 °F 86.2 °F 75.2 °F 84% 29.85 in 10.0 mi NE 13.8 mph - N/A   Mostly Cloudy
11:55 PM 79.2 °F - 74.1 °F 84% 29.85 in 6.0 mi ENE 23.0 mph 26.5 mph 0.01 in   Haze
11:56 PM 78.8 °F - 73.4 °F 83% 29.85 in 3.0 mi ENE 20.7 mph 26.5 mph N/A Rain Heavy Rain
11:57 PM 78.8 °F - 73.4 °F 83% 29.85 in 2.5 mi ENE 18.4 mph 26.5 mph N/A Rain Heavy Rain
11:58 PM 78.8 °F - 75.2 °F 89% 29.85 in 2.0 mi ENE 17.3 mph 26.5 mph N/A Rain Heavy Rain
11:59 PM 78.8 °F - 75.2 °F 89% 29.85 in 1.5 mi ENE 19.6 mph 26.5 mph N/A Rain Heavy Rain